KILE/ILE METAR and TAF weather

Enter ICAO airport designator
Station Type Date Time Source
KILE METAR 2021/05/17 22:56 UTC NOAA

KILE 172256Z AUTO 15007KT 10SM CLR 28/18 A2980 RMK AO2 SLP079 T02830183


Station Type Date Time Source
KILE Decoded METAR 2021/05/17 22:56 UTC NOAA

Killeen, Skylark Field Airport, TX, United States (KILE) 31-05N 097-41W
May 17, 2021 - 06:56 PM EDT / 2021.05.17 2256 UTC
Wind: from the SSE (150 degrees) at 8 MPH (7 KT):0
Visibility: 10 mile(s):0
Sky conditions: clear
Temperature: 82.9 F (28.3 C)
Dew Point: 64.9 F (18.3 C)
Relative Humidity: 54%
Pressure (altimeter): 29.8 in. Hg (1009 hPa)
ob: KILE 172256Z AUTO 15007KT 10SM CLR 28/18 A2980 RMK AO2 SLP079 T02830183
cycle: 23

Station Type Date Time Source
KILE TAF UTC NOAA

Error!

Example: see airport list